sensor_id;sensor_type;location;lat;lon;timestamp;temperature;humidity
43414;DHT22;29013;49.676;8.606;2022-12-07T00:03:49;5.0;99.9
43414;DHT22;29013;49.676;8.606;2022-12-07T00:09:14;5.0;99.9
43414;DHT22;29013;49.676;8.606;2022-12-07T00:14:39;5.0;99.9
43414;DHT22;29013;49.676;8.606;2022-12-07T00:20:10;5.0;99.9
43414;DHT22;29013;49.676;8.606;2022-12-07T00:25:36;5.1;99.9
43414;DHT22;29013;49.676;8.606;2022-12-07T00:31:05;5.0;99.9
43414;DHT22;29013;49.676;8.606;2022-12-07T00:36:28;5.0;99.9
43414;DHT22;29013;49.676;8.606;2022-12-07T00:41:49;5.0;99.9
43414;DHT22;29013;49.676;8.606;2022-12-07T00:47:17;5.0;99.9
43414;DHT22;29013;49.676;8.606;2022-12-07T00:52:41;5.0;99.9
43414;DHT22;29013;49.676;8.606;2022-12-07T00:58:07;5.0;99.9
43414;DHT22;29013;49.676;8.606;2022-12-07T01:03:33;5.0;99.9
43414;DHT22;29013;49.676;8.606;2022-12-07T01:09:08;4.9;99.9
43414;DHT22;29013;49.676;8.606;2022-12-07T01:14:28;5.0;99.9
43414;DHT22;29013;49.676;8.606;2022-12-07T01:19:56;5.0;99.9
43414;DHT22;29013;49.676;8.606;2022-12-07T01:25:24;4.9;99.9
43414;DHT22;29013;49.676;8.606;2022-12-07T01:30:55;4.9;99.9
43414;DHT22;29013;49.676;8.606;2022-12-07T01:36:20;5.0;99.9
43414;DHT22;29013;49.676;8.606;2022-12-07T01:41:43;4.9;99.9
43414;DHT22;29013;49.676;8.606;2022-12-07T01:47:10;4.9;99.9
43414;DHT22;29013;49.676;8.606;2022-12-07T01:52:36;4.9;99.9
43414;DHT22;29013;49.676;8.606;2022-12-07T01:58:07;4.8;99.9
43414;DHT22;29013;49.676;8.606;2022-12-07T02:03:32;4.9;99.9
43414;DHT22;29013;49.676;8.606;2022-12-07T02:08:58;4.9;99.9
43414;DHT22;29013;49.676;8.606;2022-12-07T02:14:25;4.9;99.9
43414;DHT22;29013;49.676;8.606;2022-12-07T02:20:11;4.8;99.9
43414;DHT22;29013;49.676;8.606;2022-12-07T02:25:43;4.9;99.9
43414;DHT22;29013;49.676;8.606;2022-12-07T02:31:06;5.0;99.9
43414;DHT22;29013;49.676;8.606;2022-12-07T02:36:32;4.9;99.9
43414;DHT22;29013;49.676;8.606;2022-12-07T02:42:00;4.9;99.9
43414;DHT22;29013;49.676;8.606;2022-12-07T02:47:22;4.9;99.9
43414;DHT22;29013;49.676;8.606;2022-12-07T02:52:49;4.8;99.9
43414;DHT22;29013;49.676;8.606;2022-12-07T02:58:22;4.8;99.9
43414;DHT22;29013;49.676;8.606;2022-12-07T03:03:48;4.8;99.9
43414;DHT22;29013;49.676;8.606;2022-12-07T03:09:18;4.8;99.9
43414;DHT22;29013;49.676;8.606;2022-12-07T03:14:45;4.8;99.9
43414;DHT22;29013;49.676;8.606;2022-12-07T03:20:11;4.8;99.9
43414;DHT22;29013;49.676;8.606;2022-12-07T03:25:33;4.8;99.9
43414;DHT22;29013;49.676;8.606;2022-12-07T03:30:57;4.9;99.9
43414;DHT22;29013;49.676;8.606;2022-12-07T03:36:25;4.9;99.9
43414;DHT22;29013;49.676;8.606;2022-12-07T03:41:50;4.9;99.9
43414;DHT22;29013;49.676;8.606;2022-12-07T03:47:15;4.9;99.9
43414;DHT22;29013;49.676;8.606;2022-12-07T03:52:43;5.0;99.9
43414;DHT22;29013;49.676;8.606;2022-12-07T03:58:15;5.0;99.9
43414;DHT22;29013;49.676;8.606;2022-12-07T04:03:39;5.0;99.9
43414;DHT22;29013;49.676;8.606;2022-12-07T04:09:03;5.0;99.9
43414;DHT22;29013;49.676;8.606;2022-12-07T04:14:28;5.0;99.9
43414;DHT22;29013;49.676;8.606;2022-12-07T04:19:53;5.0;99.9
43414;DHT22;29013;49.676;8.606;2022-12-07T04:25:18;5.0;99.9
43414;DHT22;29013;49.676;8.606;2022-12-07T04:30:43;5.0;99.9
43414;DHT22;29013;49.676;8.606;2022-12-07T04:36:11;5.0;99.9
43414;DHT22;29013;49.676;8.606;2022-12-07T04:41:51;4.9;99.9
43414;DHT22;29013;49.676;8.606;2022-12-07T04:47:16;5.0;99.9
43414;DHT22;29013;49.676;8.606;2022-12-07T04:52:43;5.0;99.9
43414;DHT22;29013;49.676;8.606;2022-12-07T04:58:09;4.9;99.9
43414;DHT22;29013;49.676;8.606;2022-12-07T05:03:36;5.0;99.9
43414;DHT22;29013;49.676;8.606;2022-12-07T05:09:03;4.9;99.9
43414;DHT22;29013;49.676;8.606;2022-12-07T05:14:35;4.9;99.9
43414;DHT22;29013;49.676;8.606;2022-12-07T05:19:59;4.8;99.9
43414;DHT22;29013;49.676;8.606;2022-12-07T05:25:39;4.7;99.9
43414;DHT22;29013;49.676;8.606;2022-12-07T05:31:01;4.9;99.9
43414;DHT22;29013;49.676;8.606;2022-12-07T05:36:27;5.0;99.9
43414;DHT22;29013;49.676;8.606;2022-12-07T05:41:51;4.9;99.9
43414;DHT22;29013;49.676;8.606;2022-12-07T05:47:29;4.9;99.9
43414;DHT22;29013;49.676;8.606;2022-12-07T05:52:55;5.0;99.9
43414;DHT22;29013;49.676;8.606;2022-12-07T05:58:19;4.9;99.9
43414;DHT22;29013;49.676;8.606;2022-12-07T06:03:43;4.9;99.9
43414;DHT22;29013;49.676;8.606;2022-12-07T06:09:10;4.9;99.9
43414;DHT22;29013;49.676;8.606;2022-12-07T06:14:33;4.9;99.9
43414;DHT22;29013;49.676;8.606;2022-12-07T06:19:57;4.9;99.9
43414;DHT22;29013;49.676;8.606;2022-12-07T06:25:23;4.9;99.9
43414;DHT22;29013;49.676;8.606;2022-12-07T06:30:57;4.9;99.9
43414;DHT22;29013;49.676;8.606;2022-12-07T06:36:22;4.9;99.9
43414;DHT22;29013;49.676;8.606;2022-12-07T06:41:50;4.9;99.9
43414;DHT22;29013;49.676;8.606;2022-12-07T06:47:14;4.9;99.9
43414;DHT22;29013;49.676;8.606;2022-12-07T06:52:40;4.9;99.9
43414;DHT22;29013;49.676;8.606;2022-12-07T06:58:03;4.9;99.9
43414;DHT22;29013;49.676;8.606;2022-12-07T07:03:30;4.9;99.9
43414;DHT22;29013;49.676;8.606;2022-12-07T07:08:51;4.9;99.9
43414;DHT22;29013;49.676;8.606;2022-12-07T07:14:15;4.8;99.9
43414;DHT22;29013;49.676;8.606;2022-12-07T07:19:39;4.9;99.9
43414;DHT22;29013;49.676;8.606;2022-12-07T07:25:03;4.9;99.9
43414;DHT22;29013;49.676;8.606;2022-12-07T07:30:29;4.9;99.9
43414;DHT22;29013;49.676;8.606;2022-12-07T07:35:55;4.9;99.9
43414;DHT22;29013;49.676;8.606;2022-12-07T07:41:21;4.9;99.9
43414;DHT22;29013;49.676;8.606;2022-12-07T07:46:48;4.9;99.9
43414;DHT22;29013;49.676;8.606;2022-12-07T07:52:14;4.9;99.9
43414;DHT22;29013;49.676;8.606;2022-12-07T07:57:41;5.0;99.9
43414;DHT22;29013;49.676;8.606;2022-12-07T08:03:06;5.0;99.9
43414;DHT22;29013;49.676;8.606;2022-12-07T08:08:30;5.0;99.9
43414;DHT22;29013;49.676;8.606;2022-12-07T08:13:57;5.0;99.9
43414;DHT22;29013;49.676;8.606;2022-12-07T08:19:21;5.1;99.9
43414;DHT22;29013;49.676;8.606;2022-12-07T08:24:48;5.1;99.9
43414;DHT22;29013;49.676;8.606;2022-12-07T08:30:13;5.0;99.9
43414;DHT22;29013;49.676;8.606;2022-12-07T08:35:37;5.1;99.9
43414;DHT22;29013;49.676;8.606;2022-12-07T08:40:59;5.2;99.9
43414;DHT22;29013;49.676;8.606;2022-12-07T08:46:25;5.2;99.9
43414;DHT22;29013;49.676;8.606;2022-12-07T08:51:47;5.2;99.9
43414;DHT22;29013;49.676;8.606;2022-12-07T08:57:12;5.3;99.9
43414;DHT22;29013;49.676;8.606;2022-12-07T09:02:36;5.3;99.9
43414;DHT22;29013;49.676;8.606;2022-12-07T09:08:02;5.3;99.9
43414;DHT22;29013;49.676;8.606;2022-12-07T09:13:28;5.3;99.9
43414;DHT22;29013;49.676;8.606;2022-12-07T09:18:55;5.4;99.9
43414;DHT22;29013;49.676;8.606;2022-12-07T09:24:18;5.4;99.9
43414;DHT22;29013;49.676;8.606;2022-12-07T09:29:46;5.4;99.9
43414;DHT22;29013;49.676;8.606;2022-12-07T09:35:11;5.5;99.9
43414;DHT22;29013;49.676;8.606;2022-12-07T09:40:32;5.5;99.9
43414;DHT22;29013;49.676;8.606;2022-12-07T09:45:59;5.6;99.9
43414;DHT22;29013;49.676;8.606;2022-12-07T09:51:23;5.6;99.9
43414;DHT22;29013;49.676;8.606;2022-12-07T09:56:47;5.6;99.9
43414;DHT22;29013;49.676;8.606;2022-12-07T10:02:28;5.7;99.9
43414;DHT22;29013;49.676;8.606;2022-12-07T10:07:51;5.8;99.9
43414;DHT22;29013;49.676;8.606;2022-12-07T10:13:18;5.8;99.9
43414;DHT22;29013;49.676;8.606;2022-12-07T10:18:43;5.8;99.9
43414;DHT22;29013;49.676;8.606;2022-12-07T10:24:14;5.8;99.9
43414;DHT22;29013;49.676;8.606;2022-12-07T10:29:36;5.9;99.9
43414;DHT22;29013;49.676;8.606;2022-12-07T10:35:25;5.9;99.9
43414;DHT22;29013;49.676;8.606;2022-12-07T10:40:47;6.1;99.9
43414;DHT22;29013;49.676;8.606;2022-12-07T10:46:27;6.0;99.9
43414;DHT22;29013;49.676;8.606;2022-12-07T10:51:52;6.1;99.9
43414;DHT22;29013;49.676;8.606;2022-12-07T10:57:30;6.0;99.9
43414;DHT22;29013;49.676;8.606;2022-12-07T11:08:51;6.1;99.9
43414;DHT22;29013;49.676;8.606;2022-12-07T11:14:18;6.1;99.9
43414;DHT22;29013;49.676;8.606;2022-12-07T11:20:01;6.2;99.9
43414;DHT22;29013;49.676;8.606;2022-12-07T11:25:26;6.4;99.9
43414;DHT22;29013;49.676;8.606;2022-12-07T11:30:51;6.5;99.9
43414;DHT22;29013;49.676;8.606;2022-12-07T11:36:23;6.5;99.9
43414;DHT22;29013;49.676;8.606;2022-12-07T11:41:47;6.6;99.9
43414;DHT22;29013;49.676;8.606;2022-12-07T11:47:12;6.6;99.9
43414;DHT22;29013;49.676;8.606;2022-12-07T11:52:42;6.6;99.9
43414;DHT22;29013;49.676;8.606;2022-12-07T11:58:09;6.7;99.9
43414;DHT22;29013;49.676;8.606;2022-12-07T12:03:33;6.7;99.9
43414;DHT22;29013;49.676;8.606;2022-12-07T12:08:55;6.8;99.9
43414;DHT22;29013;49.676;8.606;2022-12-07T12:14:37;6.9;99.9
43414;DHT22;29013;49.676;8.606;2022-12-07T12:20:05;7.1;99.9
43414;DHT22;29013;49.676;8.606;2022-12-07T12:25:29;7.0;99.9
43414;DHT22;29013;49.676;8.606;2022-12-07T12:31:14;7.0;99.9
43414;DHT22;29013;49.676;8.606;2022-12-07T12:36:56;7.0;99.9
43414;DHT22;29013;49.676;8.606;2022-12-07T12:42:42;7.0;99.9
43414;DHT22;29013;49.676;8.606;2022-12-07T12:53:43;7.1;99.9
43414;DHT22;29013;49.676;8.606;2022-12-07T12:59:26;7.0;99.9
43414;DHT22;29013;49.676;8.606;2022-12-07T13:04:55;7.0;99.9
43414;DHT22;29013;49.676;8.606;2022-12-07T13:21:46;7.0;99.9
43414;DHT22;29013;49.676;8.606;2022-12-07T13:27:11;7.0;99.9
43414;DHT22;29013;49.676;8.606;2022-12-07T13:32:35;7.0;99.9
43414;DHT22;29013;49.676;8.606;2022-12-07T13:37:59;7.0;99.9
43414;DHT22;29013;49.676;8.606;2022-12-07T13:43:22;7.0;99.9
43414;DHT22;29013;49.676;8.606;2022-12-07T13:48:49;7.0;99.9
43414;DHT22;29013;49.676;8.606;2022-12-07T13:54:15;7.0;99.9
43414;DHT22;29013;49.676;8.606;2022-12-07T13:59:41;7.0;99.9
43414;DHT22;29013;49.676;8.606;2022-12-07T14:05:13;6.9;99.9
43414;DHT22;29013;49.676;8.606;2022-12-07T14:10:37;6.9;99.9
43414;DHT22;29013;49.676;8.606;2022-12-07T14:16:00;6.9;99.9
43414;DHT22;29013;49.676;8.606;2022-12-07T14:21:22;6.8;99.9
43414;DHT22;29013;49.676;8.606;2022-12-07T14:26:47;6.9;99.9
43414;DHT22;29013;49.676;8.606;2022-12-07T14:32:29;6.9;99.9
43414;DHT22;29013;49.676;8.606;2022-12-07T14:37:54;7.0;99.9
43414;DHT22;29013;49.676;8.606;2022-12-07T14:43:16;6.9;99.9
43414;DHT22;29013;49.676;8.606;2022-12-07T14:48:39;6.9;99.9
43414;DHT22;29013;49.676;8.606;2022-12-07T14:54:05;6.9;99.9
43414;DHT22;29013;49.676;8.606;2022-12-07T14:59:31;6.9;99.9
43414;DHT22;29013;49.676;8.606;2022-12-07T15:04:57;6.8;99.9
43414;DHT22;29013;49.676;8.606;2022-12-07T15:10:24;6.7;99.9
43414;DHT22;29013;49.676;8.606;2022-12-07T15:15:45;6.7;99.9
43414;DHT22;29013;49.676;8.606;2022-12-07T15:21:14;6.7;99.9
43414;DHT22;29013;49.676;8.606;2022-12-07T15:26:41;6.6;99.9
43414;DHT22;29013;49.676;8.606;2022-12-07T15:32:02;6.6;99.9
43414;DHT22;29013;49.676;8.606;2022-12-07T15:37:29;6.6;99.9
43414;DHT22;29013;49.676;8.606;2022-12-07T15:42:56;6.6;99.9
43414;DHT22;29013;49.676;8.606;2022-12-07T15:48:20;6.6;99.9
43414;DHT22;29013;49.676;8.606;2022-12-07T15:53:47;6.5;99.9
43414;DHT22;29013;49.676;8.606;2022-12-07T15:59:10;6.5;99.9
43414;DHT22;29013;49.676;8.606;2022-12-07T16:04:36;6.5;99.9
43414;DHT22;29013;49.676;8.606;2022-12-07T16:10:02;6.5;99.9
43414;DHT22;29013;49.676;8.606;2022-12-07T16:15:23;6.4;99.9
43414;DHT22;29013;49.676;8.606;2022-12-07T16:20:51;6.4;99.9
43414;DHT22;29013;49.676;8.606;2022-12-07T16:26:17;6.4;99.9
43414;DHT22;29013;49.676;8.606;2022-12-07T16:31:41;6.3;99.9
43414;DHT22;29013;49.676;8.606;2022-12-07T16:37:07;6.4;99.9
43414;DHT22;29013;49.676;8.606;2022-12-07T16:42:32;6.4;99.9
43414;DHT22;29013;49.676;8.606;2022-12-07T16:47:56;6.3;99.9
43414;DHT22;29013;49.676;8.606;2022-12-07T16:53:17;6.4;99.9
43414;DHT22;29013;49.676;8.606;2022-12-07T17:12:09;9.8;99.9
43414;DHT22;29013;49.676;8.606;2022-12-07T17:17:33;8.7;99.9
43414;DHT22;29013;49.676;8.606;2022-12-07T17:23:01;7.7;99.9
43414;DHT22;29013;49.676;8.606;2022-12-07T17:28:25;7.1;99.9
43414;DHT22;29013;49.676;8.606;2022-12-07T17:33:49;6.8;99.9
43414;DHT22;29013;49.676;8.606;2022-12-07T17:39:17;6.6;99.9
43414;DHT22;29013;49.676;8.606;2022-12-07T17:44:42;6.5;99.9
43414;DHT22;29013;49.676;8.606;2022-12-07T17:50:10;6.4;99.9
43414;DHT22;29013;49.676;8.606;2022-12-07T17:55:31;6.4;99.9
43414;DHT22;29013;49.676;8.606;2022-12-07T18:00:56;6.3;99.9
43414;DHT22;29013;49.676;8.606;2022-12-07T18:06:22;6.3;99.9
43414;DHT22;29013;49.676;8.606;2022-12-07T18:11:49;6.2;99.9
43414;DHT22;29013;49.676;8.606;2022-12-07T18:17:17;6.2;99.9
43414;DHT22;29013;49.676;8.606;2022-12-07T18:22:42;6.1;99.9
43414;DHT22;29013;49.676;8.606;2022-12-07T18:28:10;6.1;99.9
43414;DHT22;29013;49.676;8.606;2022-12-07T18:33:35;6.1;99.9
43414;DHT22;29013;49.676;8.606;2022-12-07T18:39:01;6.0;99.9
43414;DHT22;29013;49.676;8.606;2022-12-07T18:44:27;5.9;99.9
43414;DHT22;29013;49.676;8.606;2022-12-07T18:49:52;5.9;99.9
43414;DHT22;29013;49.676;8.606;2022-12-07T18:55:17;5.9;99.9
43414;DHT22;29013;49.676;8.606;2022-12-07T19:00:43;5.9;99.9
43414;DHT22;29013;49.676;8.606;2022-12-07T19:06:09;5.9;99.9
43414;DHT22;29013;49.676;8.606;2022-12-07T19:11:33;5.9;99.9
43414;DHT22;29013;49.676;8.606;2022-12-07T19:17:00;5.8;99.9
43414;DHT22;29013;49.676;8.606;2022-12-07T19:22:26;5.7;99.9
43414;DHT22;29013;49.676;8.606;2022-12-07T19:27:53;5.7;99.9
43414;DHT22;29013;49.676;8.606;2022-12-07T19:33:14;5.7;99.9
43414;DHT22;29013;49.676;8.606;2022-12-07T19:38:35;5.8;99.9
43414;DHT22;29013;49.676;8.606;2022-12-07T19:44:02;5.7;99.9
43414;DHT22;29013;49.676;8.606;2022-12-07T19:49:29;5.7;99.9
43414;DHT22;29013;49.676;8.606;2022-12-07T19:54:52;5.6;99.9
43414;DHT22;29013;49.676;8.606;2022-12-07T20:00:22;5.6;99.9
43414;DHT22;29013;49.676;8.606;2022-12-07T20:05:48;5.6;99.9
43414;DHT22;29013;49.676;8.606;2022-12-07T20:11:16;5.5;99.9
43414;DHT22;29013;49.676;8.606;2022-12-07T20:16:39;5.5;99.9
43414;DHT22;29013;49.676;8.606;2022-12-07T20:22:05;5.4;99.9
43414;DHT22;29013;49.676;8.606;2022-12-07T20:27:32;5.4;99.9
43414;DHT22;29013;49.676;8.606;2022-12-07T20:32:56;5.4;99.9
43414;DHT22;29013;49.676;8.606;2022-12-07T20:38:21;5.4;99.9
43414;DHT22;29013;49.676;8.606;2022-12-07T20:43:48;5.4;99.9
43414;DHT22;29013;49.676;8.606;2022-12-07T20:49:15;5.3;99.9
43414;DHT22;29013;49.676;8.606;2022-12-07T20:54:42;5.4;99.9
43414;DHT22;29013;49.676;8.606;2022-12-07T21:00:10;5.3;99.9
43414;DHT22;29013;49.676;8.606;2022-12-07T21:05:31;5.4;99.9
43414;DHT22;29013;49.676;8.606;2022-12-07T21:10:55;5.4;99.9
43414;DHT22;29013;49.676;8.606;2022-12-07T21:16:21;5.4;99.9
43414;DHT22;29013;49.676;8.606;2022-12-07T21:21:47;5.3;99.9
43414;DHT22;29013;49.676;8.606;2022-12-07T21:27:10;5.3;99.9
43414;DHT22;29013;49.676;8.606;2022-12-07T21:32:37;5.3;99.9
43414;DHT22;29013;49.676;8.606;2022-12-07T21:38:00;5.2;99.9
43414;DHT22;29013;49.676;8.606;2022-12-07T21:43:25;5.2;99.9
43414;DHT22;29013;49.676;8.606;2022-12-07T21:48:53;5.2;99.9
43414;DHT22;29013;49.676;8.606;2022-12-07T21:54:16;5.2;99.9
43414;DHT22;29013;49.676;8.606;2022-12-07T21:59:43;5.1;99.9
43414;DHT22;29013;49.676;8.606;2022-12-07T22:05:10;5.1;99.9
43414;DHT22;29013;49.676;8.606;2022-12-07T22:10:31;5.1;99.9
43414;DHT22;29013;49.676;8.606;2022-12-07T22:15:56;5.1;99.9
43414;DHT22;29013;49.676;8.606;2022-12-07T22:21:24;5.1;99.9
43414;DHT22;29013;49.676;8.606;2022-12-07T22:26:48;5.0;99.9
43414;DHT22;29013;49.676;8.606;2022-12-07T22:32:16;5.0;99.9
43414;DHT22;29013;49.676;8.606;2022-12-07T22:37:43;5.0;99.9
43414;DHT22;29013;49.676;8.606;2022-12-07T22:43:11;4.9;99.9
43414;DHT22;29013;49.676;8.606;2022-12-07T22:48:33;4.9;99.9
43414;DHT22;29013;49.676;8.606;2022-12-07T22:54:01;4.9;99.9
43414;DHT22;29013;49.676;8.606;2022-12-07T22:59:24;4.9;99.9
43414;DHT22;29013;49.676;8.606;2022-12-07T23:04:48;4.9;99.9
43414;DHT22;29013;49.676;8.606;2022-12-07T23:10:15;4.9;99.9
43414;DHT22;29013;49.676;8.606;2022-12-07T23:15:42;4.9;99.9
43414;DHT22;29013;49.676;8.606;2022-12-07T23:21:08;4.9;99.9
43414;DHT22;29013;49.676;8.606;2022-12-07T23:26:37;4.8;99.9
43414;DHT22;29013;49.676;8.606;2022-12-07T23:31:58;4.8;99.9
43414;DHT22;29013;49.676;8.606;2022-12-07T23:37:24;4.8;99.9
43414;DHT22;29013;49.676;8.606;2022-12-07T23:42:50;4.8;99.9
43414;DHT22;29013;49.676;8.606;2022-12-07T23:48:14;4.8;99.9
43414;DHT22;29013;49.676;8.606;2022-12-07T23:53:43;4.8;99.9
43414;DHT22;29013;49.676;8.606;2022-12-07T23:59:09;4.8;99.9
